createdAt,value
2018-04-19T00:00:54.459Z,17.03
2018-04-19T00:03:22.003Z,17.77
2018-04-19T00:05:49.464Z,16.83
2018-04-19T00:08:17.006Z,17.00
2018-04-19T00:10:44.492Z,16.73
2018-04-19T00:13:12.040Z,16.37
2018-04-19T00:15:39.476Z,17.33
2018-04-19T00:18:06.920Z,16.33
2018-04-19T00:20:34.404Z,17.93
2018-04-19T00:23:01.864Z,18.63
2018-04-19T00:25:29.317Z,18.80
2018-04-19T00:27:56.759Z,20.40
2018-04-19T00:30:24.198Z,21.17
2018-04-19T00:32:52.407Z,20.10
2018-04-19T00:35:19.846Z,20.40
2018-04-19T00:37:47.295Z,19.87
2018-04-19T00:40:15.492Z,19.77
2018-04-19T00:42:42.971Z,20.50
2018-04-19T00:45:11.422Z,19.70
2018-04-19T00:47:38.899Z,20.00
2018-04-19T00:50:06.331Z,19.90
2018-04-19T00:52:45.743Z,19.20
2018-04-19T00:55:13.975Z,19.00
2018-04-19T00:57:41.423Z,21.00
2018-04-19T01:00:08.886Z,20.47
2018-04-19T01:02:36.332Z,18.83
2018-04-19T01:05:03.800Z,18.97
2018-04-19T01:07:32.009Z,18.73
2018-04-19T01:09:59.568Z,19.00
2018-04-19T01:12:27.027Z,17.80
2018-04-19T01:14:54.962Z,18.07
2018-04-19T01:17:23.199Z,18.70
2018-04-19T01:19:50.732Z,18.40
2018-04-19T01:22:18.199Z,18.63
2018-04-19T01:24:45.620Z,19.07
2018-04-19T01:27:13.120Z,19.43
2018-04-19T01:29:40.552Z,19.63
2018-04-19T01:32:08.025Z,19.77
2018-04-19T01:34:35.585Z,19.85
2018-04-19T01:37:03.833Z,19.50
2018-04-19T01:39:31.376Z,20.30
2018-04-19T01:41:58.851Z,19.43
2018-04-19T01:44:26.372Z,19.17
2018-04-19T01:46:53.875Z,20.77
2018-04-19T01:49:21.311Z,18.30
2018-04-19T01:51:48.734Z,18.80
2018-04-19T01:54:16.183Z,18.87
2018-04-19T01:56:43.794Z,20.13
2018-04-19T01:59:11.354Z,19.83
2018-04-19T02:01:38.799Z,20.83
2018-04-19T02:04:06.237Z,20.77
2018-04-19T02:06:33.668Z,21.17
2018-04-19T02:09:01.109Z,21.87
2018-04-19T02:11:29.318Z,21.47
2018-04-19T02:13:56.762Z,22.30
2018-04-19T02:16:24.219Z,22.53
2018-04-19T02:18:51.749Z,23.47
2018-04-19T02:21:19.957Z,22.23
2018-04-19T02:23:47.406Z,22.50
2018-04-19T02:26:14.914Z,26.87
2018-04-19T02:28:42.354Z,23.80
2018-04-19T02:31:09.797Z,21.63
2018-04-19T02:33:37.248Z,22.00
2018-04-19T02:36:04.691Z,21.17
2018-04-19T02:38:32.183Z,22.53
2018-04-19T02:40:59.614Z,22.17
2018-04-19T02:43:27.093Z,21.63
2018-04-19T02:45:54.574Z,23.23
2018-04-19T02:48:22.019Z,23.07
2018-04-19T02:50:49.450Z,20.93
2018-04-19T02:53:16.880Z,22.20
2018-04-19T02:55:44.326Z,22.63
2018-04-19T02:58:11.747Z,23.40
2018-04-19T03:00:39.287Z,24.10
2018-04-19T03:03:06.732Z,26.03
2018-04-19T03:05:34.195Z,24.73
2018-04-19T03:08:01.691Z,25.27
2018-04-19T03:10:29.123Z,24.23
2018-04-19T03:12:56.682Z,25.20
2018-04-19T03:15:24.113Z,25.00
2018-04-19T03:17:51.623Z,23.57
2018-04-19T03:20:19.058Z,23.50
2018-04-19T03:22:46.504Z,23.13
2018-04-19T03:25:13.969Z,23.30
2018-04-19T03:27:41.421Z,22.23
2018-04-19T03:30:08.863Z,23.00
2018-04-19T03:32:36.293Z,23.27
2018-04-19T03:35:04.502Z,22.90
2018-04-19T03:37:31.961Z,24.60
2018-04-19T03:39:59.427Z,23.03
2018-04-19T03:42:26.861Z,23.20
2018-04-19T03:44:54.306Z,22.73
2018-04-19T03:47:21.803Z,23.17
2018-04-19T03:49:49.359Z,24.10
2018-04-19T03:52:16.823Z,23.20
2018-04-19T03:54:44.275Z,23.50
2018-04-19T03:57:11.721Z,22.93
2018-04-19T03:59:39.187Z,23.70
2018-04-19T04:02:06.641Z,23.03
2018-04-19T04:04:34.107Z,25.17
2018-04-19T04:07:01.559Z,23.77
2018-04-19T04:09:29.115Z,23.70
2018-04-19T04:11:56.532Z,22.07
2018-04-19T04:14:24.891Z,21.33
2018-04-19T04:17:04.169Z,24.23
2018-04-19T04:19:43.403Z,23.13
2018-04-19T04:22:22.721Z,23.27
2018-04-19T04:24:50.931Z,22.53
2018-04-19T04:27:18.370Z,22.40
2018-04-19T04:29:45.803Z,24.27
2018-04-19T04:32:14.015Z,24.13
2018-04-19T04:34:41.452Z,23.97
2018-04-19T04:37:08.903Z,25.13
2018-04-19T04:39:36.342Z,25.77
2018-04-19T04:42:04.552Z,27.23
2018-04-19T04:44:31.975Z,24.13
2018-04-19T04:47:00.913Z,24.77
2018-04-19T04:49:28.360Z,24.20
2018-04-19T04:51:55.832Z,24.57
2018-04-19T04:54:23.272Z,25.73
2018-04-19T04:56:50.707Z,26.70
2018-04-19T04:59:18.939Z,26.17
2018-04-19T05:01:46.400Z,26.50
2018-04-19T05:04:13.959Z,25.00
2018-04-19T05:06:41.403Z,28.20
2018-04-19T05:09:08.848Z,26.83
2018-04-19T05:11:36.279Z,28.10
2018-04-19T05:14:03.803Z,26.53
2018-04-19T05:16:31.239Z,28.47
2018-04-19T05:18:58.685Z,29.73
2018-04-19T05:21:26.136Z,27.40
2018-04-19T05:23:53.584Z,27.43
2018-04-19T05:26:21.040Z,27.27
2018-04-19T05:28:48.498Z,24.97
2018-04-19T05:31:15.981Z,26.50
2018-04-19T05:33:43.428Z,26.13
2018-04-19T05:36:10.875Z,26.63
2018-04-19T05:38:38.327Z,28.83
2018-04-19T05:41:05.817Z,27.50
2018-04-19T05:43:33.243Z,29.47
2018-04-19T05:46:00.699Z,28.07
2018-04-19T05:48:28.166Z,27.87
2018-04-19T05:50:55.700Z,27.63
2018-04-19T05:53:23.189Z,27.97
2018-04-19T05:55:50.628Z,28.23
2018-04-19T05:58:18.053Z,28.10
2018-04-19T06:00:45.522Z,28.13
2018-04-19T06:03:13.030Z,26.77
2018-04-19T06:05:40.575Z,27.70
2018-04-19T06:08:08.020Z,29.50
2018-04-19T06:10:35.486Z,29.00
2018-04-19T06:13:02.931Z,28.20
2018-04-19T06:15:30.375Z,28.30
2018-04-19T06:17:57.848Z,28.17
2018-04-19T06:20:25.279Z,26.30
2018-04-19T06:22:52.723Z,28.87
2018-04-19T06:25:20.936Z,29.60
2018-04-19T06:27:48.375Z,31.17
2018-04-19T06:30:15.850Z,30.83
2018-04-19T06:32:43.308Z,29.70
2018-04-19T06:35:10.739Z,29.27
2018-04-19T06:37:38.193Z,28.30
2018-04-19T06:40:05.688Z,27.10
2018-04-19T06:42:33.128Z,26.57
2018-04-19T06:45:00.603Z,25.75
2018-04-19T06:47:28.035Z,27.53
2018-04-19T06:49:55.524Z,24.07
2018-04-19T06:52:23.275Z,27.15
2018-04-19T06:54:50.687Z,25.70
2018-04-19T06:57:18.927Z,23.73
2018-04-19T06:59:46.357Z,24.50
2018-04-19T07:02:13.825Z,24.77
2018-04-19T07:04:41.271Z,23.47
2018-04-19T07:07:08.707Z,22.47
2018-04-19T07:09:37.026Z,21.23
2018-04-19T07:12:04.499Z,21.07
2018-04-19T07:14:31.931Z,20.07
2018-04-19T07:16:59.400Z,17.63
2018-04-19T07:19:26.850Z,17.00
2018-04-19T07:21:54.312Z,17.33
2018-04-19T07:24:21.731Z,16.70
2018-04-19T07:26:49.193Z,17.50
2018-04-19T07:29:17.399Z,15.53
2018-04-19T07:31:44.867Z,16.23
2018-04-19T07:34:12.329Z,17.43
2018-04-19T07:36:39.775Z,24.13
2018-04-19T07:39:07.252Z,27.97
2018-04-19T07:41:34.661Z,29.77
2018-04-19T07:44:02.154Z,18.83
2018-04-19T07:46:29.602Z,17.10
2018-04-19T07:48:57.068Z,15.67
2018-04-19T07:51:24.593Z,15.17
2018-04-19T07:53:51.999Z,13.87
2018-04-19T07:56:19.513Z,14.40
2018-04-19T07:58:46.989Z,13.93
2018-04-19T08:01:14.463Z,13.50
2018-04-19T08:03:41.909Z,13.62
2018-04-19T08:06:09.362Z,13.20
2018-04-19T08:08:36.816Z,12.88
2018-04-19T08:11:04.380Z,12.00
2018-04-19T08:13:31.839Z,13.40
2018-04-19T08:15:59.387Z,11.90
2018-04-19T08:18:26.855Z,11.80
2018-04-19T08:20:54.311Z,11.30
2018-04-19T08:23:21.787Z,11.75
2018-04-19T08:25:49.235Z,11.02
2018-04-19T08:28:16.685Z,10.68
2018-04-19T08:30:44.142Z,10.48
2018-04-19T08:33:11.602Z,10.60
2018-04-19T08:35:39.031Z,10.55
2018-04-19T08:38:06.491Z,10.70
2018-04-19T08:40:33.909Z,10.77
2018-04-19T08:43:02.124Z,10.25
2018-04-19T08:45:29.597Z,11.00
2018-04-19T08:47:57.049Z,11.75
2018-04-19T08:50:24.529Z,11.18
2018-04-19T08:52:51.966Z,10.30
2018-04-19T08:55:19.417Z,11.05
2018-04-19T08:57:46.857Z,11.00
2018-04-19T09:00:14.346Z,11.00
2018-04-19T09:02:41.845Z,10.57
2018-04-19T09:05:09.252Z,10.15
2018-04-19T09:07:36.699Z,9.45
2018-04-19T09:10:04.158Z,9.93
2018-04-19T09:12:31.579Z,10.25
2018-04-19T09:14:59.814Z,11.12
2018-04-19T09:17:27.364Z,11.80
2018-04-19T09:19:54.821Z,12.85
2018-04-19T09:22:22.290Z,11.73
2018-04-19T09:24:49.720Z,10.52
2018-04-19T09:27:17.171Z,10.43
2018-04-19T09:29:44.603Z,11.07
2018-04-19T09:32:12.819Z,10.77
2018-04-19T09:34:40.276Z,9.50
2018-04-19T09:37:07.717Z,9.65
2018-04-19T09:39:35.213Z,10.23
2018-04-19T09:42:02.612Z,10.30
2018-04-19T09:44:30.107Z,8.93
2018-04-19T09:46:57.563Z,10.65
2018-04-19T09:49:25.404Z,9.40
2018-04-19T09:51:52.856Z,9.75
2018-04-19T09:54:21.984Z,9.15
2018-04-19T09:56:49.433Z,10.02
2018-04-19T09:59:16.867Z,9.77
2018-04-19T10:01:50.098Z,10.52
2018-04-19T10:04:23.914Z,10.43
2018-04-19T10:06:52.236Z,9.55
2018-04-19T10:09:19.688Z,9.75
2018-04-19T10:11:47.136Z,9.50
2018-04-19T10:14:14.578Z,10.48
2018-04-19T10:16:42.067Z,11.18
2018-04-19T10:19:09.518Z,10.70
2018-04-19T10:21:36.975Z,9.77
2018-04-19T10:24:04.423Z,11.20
2018-04-19T10:26:31.865Z,11.18
2018-04-19T10:28:59.305Z,12.57
2018-04-19T10:31:27.531Z,9.75
2018-04-19T10:33:54.971Z,10.73
2018-04-19T10:36:22.414Z,10.43
2018-04-19T10:38:49.893Z,10.25
2018-04-19T10:41:17.392Z,9.50
2018-04-19T10:43:44.818Z,9.68
2018-04-19T10:46:12.261Z,10.13
2018-04-19T10:48:39.702Z,9.48
2018-04-19T10:51:07.140Z,9.65
2018-04-19T10:53:35.359Z,10.00
2018-04-19T10:56:02.808Z,9.27
2018-04-19T10:58:30.271Z,9.68
2018-04-19T11:00:57.783Z,10.40
2018-04-19T11:03:25.159Z,9.40
2018-04-19T11:05:52.638Z,7.97
2018-04-19T11:08:20.106Z,7.32
2018-04-19T11:10:47.546Z,7.80
2018-04-19T11:13:15.019Z,7.55
2018-04-19T11:15:42.794Z,10.50
2018-04-19T11:18:10.555Z,11.23
2018-04-19T11:20:37.995Z,8.48
2018-04-19T11:23:05.427Z,8.07
2018-04-19T11:25:32.924Z,8.40
2018-04-19T11:28:00.354Z,8.95
2018-04-19T11:30:27.896Z,9.48
2018-04-19T11:32:55.388Z,9.18
2018-04-19T11:35:22.851Z,11.32
2018-04-19T11:37:50.312Z,11.30
2018-04-19T11:40:17.791Z,10.30
2018-04-19T11:42:45.340Z,9.93
2018-04-19T11:45:12.767Z,11.25
2018-04-19T11:47:40.271Z,10.98
2018-04-19T11:50:07.800Z,11.48
2018-04-19T11:52:35.243Z,10.13
2018-04-19T11:55:02.710Z,9.50
2018-04-19T11:57:30.153Z,9.77
2018-04-19T11:59:57.636Z,10.10
2018-04-19T12:02:25.188Z,10.05
2018-04-19T12:04:52.634Z,9.13
2018-04-19T12:07:20.069Z,7.40
2018-04-19T12:09:47.504Z,7.18
2018-04-19T12:12:15.718Z,9.60
2018-04-19T12:14:43.210Z,9.07
2018-04-19T12:17:10.649Z,9.73
2018-04-19T12:19:38.104Z,9.38
2018-04-19T12:22:05.580Z,10.75
2018-04-19T12:24:33.060Z,9.85
2018-04-19T12:27:00.481Z,11.25
2018-04-19T12:29:27.925Z,11.55
2018-04-19T12:31:55.359Z,10.88
2018-04-19T12:34:22.811Z,10.70
2018-04-19T12:36:50.243Z,11.45
2018-04-19T12:39:17.687Z,11.35
2018-04-19T12:41:46.636Z,10.90
2018-04-19T12:44:14.100Z,11.77
2018-04-19T12:46:41.515Z,11.03
2018-04-19T12:49:09.727Z,10.18
2018-04-19T12:51:37.210Z,8.93
2018-04-19T12:54:04.761Z,8.73
2018-04-19T12:56:32.237Z,7.95
2018-04-19T12:58:59.677Z,8.55
2018-04-19T13:01:27.115Z,7.80
2018-04-19T13:03:54.572Z,6.70
2018-04-19T13:06:22.010Z,6.82
2018-04-19T13:08:49.492Z,7.93
2018-04-19T13:11:16.923Z,7.07
2018-04-19T13:13:44.400Z,6.28
2018-04-19T13:16:11.903Z,5.85
2018-04-19T13:18:39.348Z,6.15
2018-04-19T13:21:06.772Z,5.35
2018-04-19T13:23:34.220Z,5.62
2018-04-19T13:26:01.701Z,6.00
2018-04-19T13:28:29.636Z,4.85
2018-04-19T13:30:57.131Z,4.10
2018-04-19T13:33:24.578Z,4.50
2018-04-19T13:35:52.027Z,4.15
2018-04-19T13:38:19.484Z,4.37
2018-04-19T13:40:46.951Z,4.72
2018-04-19T13:43:14.508Z,5.00
2018-04-19T13:45:41.963Z,4.25
2018-04-19T13:48:10.232Z,4.55
2018-04-19T13:50:37.674Z,5.85
2018-04-19T13:53:05.212Z,4.28
2018-04-19T13:55:32.684Z,3.80
2018-04-19T13:58:00.243Z,4.32
2018-04-19T14:00:27.683Z,3.50
2018-04-19T14:02:55.150Z,4.10
2018-04-19T14:05:22.588Z,4.35
2018-04-19T14:07:50.022Z,3.62
2018-04-19T14:10:18.239Z,4.40
2018-04-19T14:12:45.707Z,3.87
2018-04-19T14:15:13.186Z,3.15
2018-04-19T14:17:40.615Z,3.33
2018-04-19T14:20:08.831Z,3.83
2018-04-19T14:22:36.261Z,3.92
2018-04-19T14:25:04.479Z,3.87
2018-04-19T14:27:31.938Z,3.65
2018-04-19T14:29:59.374Z,3.22
2018-04-19T14:32:26.881Z,3.08
2018-04-19T14:34:54.322Z,3.53
2018-04-19T14:37:21.808Z,3.67
2018-04-19T14:39:49.339Z,3.72
2018-04-19T14:42:16.804Z,3.75
2018-04-19T14:44:44.235Z,3.60
2018-04-19T14:47:11.668Z,3.28
2018-04-19T14:49:40.423Z,3.55
2018-04-19T14:52:08.775Z,3.10
2018-04-19T14:54:36.199Z,4.22
2018-04-19T14:57:03.692Z,3.67
2018-04-19T14:59:31.274Z,3.10
2018-04-19T15:01:59.631Z,4.22
2018-04-19T15:04:27.392Z,3.45
2018-04-19T15:06:54.824Z,3.30
2018-04-19T15:09:22.262Z,3.53
2018-04-19T15:11:50.483Z,3.40
2018-04-19T15:14:17.931Z,3.12
2018-04-19T15:16:45.372Z,3.42
2018-04-19T15:19:12.810Z,3.00
2018-04-19T15:21:41.018Z,2.95
2018-04-19T15:24:08.456Z,2.90
2018-04-19T15:26:35.938Z,2.90
2018-04-19T15:29:03.387Z,2.60
2018-04-19T15:31:30.817Z,2.10
2018-04-19T15:33:58.288Z,1.90
2018-04-19T15:36:25.740Z,2.10
2018-04-19T15:38:53.223Z,2.10
2018-04-19T15:41:20.828Z,2.20
2018-04-19T15:43:48.264Z,2.30
2018-04-19T15:46:15.744Z,2.20
2018-04-19T15:48:43.192Z,2.30
2018-04-19T15:51:10.624Z,2.10
2018-04-19T15:53:38.917Z,2.37
2018-04-19T15:56:06.664Z,2.08
2018-04-19T15:58:34.102Z,2.00
2018-04-19T16:01:02.327Z,2.00
2018-04-19T16:03:29.821Z,2.22
2018-04-19T16:05:58.601Z,2.55
2018-04-19T16:08:26.071Z,2.40
2018-04-19T16:10:53.540Z,2.40
2018-04-19T16:13:21.736Z,2.45
2018-04-19T16:15:49.173Z,2.10
2018-04-19T16:18:17.379Z,2.72
2018-04-19T16:20:44.835Z,2.37
2018-04-19T16:23:12.263Z,2.53
2018-04-19T16:25:40.468Z,2.75
2018-04-19T16:28:07.986Z,2.40
2018-04-19T16:30:36.191Z,2.83
2018-04-19T16:33:03.728Z,2.50
2018-04-19T16:35:32.649Z,2.28
2018-04-19T16:38:00.106Z,2.37
2018-04-19T16:40:27.662Z,2.47
2018-04-19T16:42:55.044Z,2.17
2018-04-19T16:45:22.477Z,2.20
2018-04-19T16:47:49.937Z,2.42
2018-04-19T16:50:17.363Z,2.75
2018-04-19T16:52:45.555Z,2.83
2018-04-19T16:55:13.024Z,4.75
2018-04-19T16:57:40.443Z,2.75
2018-04-19T17:00:08.670Z,2.40
2018-04-19T17:02:36.129Z,2.58
2018-04-19T17:05:03.675Z,2.58
2018-04-19T17:07:31.151Z,2.30
2018-04-19T17:09:58.604Z,2.62
2018-04-19T17:12:26.035Z,2.25
2018-04-19T17:14:53.511Z,2.30
2018-04-19T17:17:20.983Z,2.00
2018-04-19T17:19:48.428Z,2.33
2018-04-19T17:22:15.890Z,2.22
2018-04-19T17:24:43.361Z,2.53
2018-04-19T17:27:11.577Z,2.20
2018-04-19T17:29:41.077Z,2.20
2018-04-19T17:32:09.287Z,2.20
2018-04-19T17:34:36.760Z,1.90
2018-04-19T17:37:04.218Z,2.22
2018-04-19T17:39:31.659Z,2.90
2018-04-19T17:41:59.096Z,3.37
2018-04-19T17:44:26.541Z,2.97
2018-04-19T17:46:54.857Z,2.42
2018-04-19T17:49:22.278Z,3.15
2018-04-19T17:51:50.487Z,2.60
2018-04-19T17:54:17.928Z,2.53
2018-04-19T17:56:45.371Z,2.53
2018-04-19T17:59:12.802Z,2.53
2018-04-19T18:01:40.239Z,2.80
2018-04-19T18:04:07.667Z,2.60
2018-04-19T18:06:35.127Z,2.53
2018-04-19T18:09:02.588Z,3.47
2018-04-19T18:11:30.020Z,2.45
2018-04-19T18:13:57.493Z,2.55
2018-04-19T18:16:24.941Z,2.60
2018-04-19T18:18:52.371Z,2.70
2018-04-19T18:21:20.592Z,2.90
2018-04-19T18:23:48.042Z,11.40
2018-04-19T18:26:15.519Z,6.25
2018-04-19T18:28:42.957Z,3.20
2018-04-19T18:31:10.388Z,2.83
2018-04-19T18:33:37.835Z,2.97
2018-04-19T18:36:06.028Z,3.15
2018-04-19T18:38:33.524Z,3.55
2018-04-19T18:41:00.962Z,3.17
2018-04-19T18:43:28.408Z,3.10
2018-04-19T18:45:55.843Z,3.05
2018-04-19T18:48:23.339Z,2.60
2018-04-19T18:50:50.799Z,3.35
2018-04-19T18:53:18.248Z,4.32
2018-04-19T18:55:45.718Z,6.37
2018-04-19T18:58:13.241Z,19.25
2018-04-19T19:00:41.436Z,19.50
2018-04-19T19:03:08.888Z,25.83
2018-04-19T19:05:36.331Z,16.90
2018-04-19T19:08:03.823Z,8.23
2018-04-19T19:10:31.371Z,6.05
2018-04-19T19:12:58.845Z,10.35
2018-04-19T19:18:48.199Z,6.37
2018-04-19T19:21:15.632Z,5.25
2018-04-19T19:23:43.847Z,4.00
2018-04-19T19:26:11.287Z,4.03
2018-04-19T19:28:38.725Z,3.92
2018-04-19T19:31:06.938Z,4.07
2018-04-19T19:33:34.416Z,4.00
2018-04-19T19:36:04.926Z,3.75
2018-04-19T19:38:32.363Z,3.80
2018-04-19T19:40:59.823Z,3.92
2018-04-19T19:43:27.308Z,3.72
2018-04-19T19:45:54.739Z,3.78
2018-04-19T19:48:22.176Z,3.40
2018-04-19T19:50:50.478Z,3.95
2018-04-19T19:53:17.918Z,4.20
2018-04-19T19:55:46.123Z,3.83
2018-04-19T19:58:13.579Z,3.95
2018-04-19T20:00:41.010Z,4.40
2018-04-19T20:03:08.439Z,4.37
2018-04-19T20:05:35.867Z,6.57
2018-04-19T20:08:03.301Z,5.70
2018-04-19T20:10:30.776Z,5.62
2018-04-19T20:12:58.230Z,4.72
2018-04-19T20:15:25.663Z,5.28
2018-04-19T20:17:53.112Z,4.85
2018-04-19T20:20:21.335Z,5.00
2018-04-19T20:22:48.874Z,4.65
2018-04-19T20:25:16.334Z,5.18
2018-04-19T20:27:43.879Z,5.40
2018-04-19T20:30:11.352Z,5.22
2018-04-19T20:32:38.811Z,4.93
2018-04-19T20:35:06.368Z,5.15
2018-04-19T20:37:33.822Z,5.05
2018-04-19T20:40:01.279Z,5.53
2018-04-19T20:42:28.741Z,7.32
2018-04-19T20:44:56.184Z,5.55
2018-04-19T20:47:23.832Z,5.57
2018-04-19T20:49:51.369Z,5.03
2018-04-19T20:52:18.799Z,6.18
2018-04-19T20:54:46.239Z,6.07
2018-04-19T20:57:13.716Z,5.57
2018-04-19T20:59:41.161Z,5.70
2018-04-19T21:02:08.753Z,5.35
2018-04-19T21:04:38.096Z,4.87
2018-04-19T21:07:05.520Z,4.82
2018-04-19T21:09:33.728Z,5.00
2018-04-19T21:12:01.172Z,4.70
2018-04-19T21:14:29.072Z,5.30
2018-04-19T21:16:56.500Z,4.90
2018-04-19T21:19:23.956Z,5.70
2018-04-19T21:21:51.425Z,5.57
2018-04-19T21:24:18.926Z,5.23
2018-04-19T21:26:46.359Z,6.37
2018-04-19T21:29:13.807Z,6.20
2018-04-19T21:31:41.240Z,9.87
2018-04-19T21:34:08.959Z,8.10
2018-04-19T21:36:36.480Z,11.47
2018-04-19T21:39:03.958Z,9.57
2018-04-19T21:41:31.395Z,7.27
2018-04-19T21:43:58.851Z,6.53
2018-04-19T21:46:26.335Z,6.17
2018-04-19T21:48:53.792Z,6.00
2018-04-19T21:51:21.288Z,6.73
2018-04-19T21:53:49.489Z,7.15
2018-04-19T21:56:16.981Z,6.03
2018-04-19T21:58:44.413Z,6.35
2018-04-19T22:01:11.856Z,5.50
2018-04-19T22:03:39.337Z,6.60
2018-04-19T22:06:07.501Z,5.80
2018-04-19T22:08:34.928Z,5.83
2018-04-19T22:11:03.168Z,7.17
2018-04-19T22:13:30.598Z,8.00
2018-04-19T22:15:58.033Z,6.03
2018-04-19T22:18:25.514Z,6.37
2018-04-19T22:20:52.947Z,7.10
2018-04-19T22:23:20.432Z,6.97
2018-04-19T22:25:47.867Z,6.37
2018-04-19T22:28:15.744Z,7.23
2018-04-19T22:30:43.246Z,7.55
2018-04-19T22:33:10.662Z,7.30
2018-04-19T22:35:38.115Z,7.55
2018-04-19T22:38:05.545Z,8.20
2018-04-19T22:40:33.838Z,7.50
2018-04-19T22:43:01.267Z,7.23
2018-04-19T22:45:29.483Z,7.27
2018-04-19T22:47:56.947Z,7.80
2018-04-19T22:50:24.395Z,7.87
2018-04-19T22:52:51.866Z,7.97
2018-04-19T22:55:19.313Z,8.30
2018-04-19T22:57:46.803Z,8.23
2018-04-19T23:00:14.220Z,9.67
2018-04-19T23:02:41.799Z,9.73
2018-04-19T23:05:09.247Z,8.90
2018-04-19T23:07:36.679Z,8.70
2018-04-19T23:10:04.167Z,8.55
2018-04-19T23:12:31.608Z,7.30
2018-04-19T23:14:59.047Z,8.00
2018-04-19T23:17:26.487Z,7.30
2018-04-19T23:19:54.711Z,7.40
2018-04-19T23:22:34.159Z,7.60
2018-04-19T23:25:01.623Z,7.00
2018-04-19T23:27:29.067Z,7.83
2018-04-19T23:29:56.507Z,6.70
2018-04-19T23:32:23.970Z,7.50
2018-04-19T23:34:51.413Z,6.93
2018-04-19T23:37:18.883Z,6.90
2018-04-19T23:39:46.331Z,7.67
2018-04-19T23:42:13.780Z,7.63
2018-04-19T23:44:41.358Z,8.23
2018-04-19T23:47:08.805Z,8.00
2018-04-19T23:49:36.237Z,7.73
2018-04-19T23:52:04.454Z,8.00
2018-04-19T23:54:31.892Z,7.50
2018-04-19T23:56:59.322Z,7.43
2018-04-19T23:59:27.534Z,7.30
